Time;durP1;ratioP1;P1;durP2;ratioP2;P2;SDS_P1;SDS_P2;PMS_P1;PMS_P2;Temp;Humidity;BMP_temperature;BMP_pressure;BME280_temperature;BME280_humidity;BME280_pressure;Samples;Min_cycle;Max_cycle;Signal;HPM_P1;HPM_P2
2023/12/24 00:00:07;;;;;;;14.80;3.80;;;8.90;99.90;;;;;;5055454;28;20039;-84
2023/12/24 00:02:33;;;;;;;15.60;3.85;;;8.90;99.90;;;;;;5056995;28;20063;-83
2023/12/24 00:04:59;;;;;;;10.10;3.70;;;8.90;99.90;;;;;;5060863;28;20074;-83
2023/12/24 00:07:24;;;;;;;12.82;3.90;;;8.90;99.90;;;;;;5056674;28;20063;-84
2023/12/24 00:09:50;;;;;;;10.23;3.30;;;8.90;99.90;;;;;;5060985;28;20081;-83
2023/12/24 00:12:16;;;;;;;10.25;3.22;;;8.90;99.90;;;;;;5061060;28;20023;-83
2023/12/24 00:14:41;;;;;;;12.93;3.28;;;9.00;99.90;;;;;;5063201;28;20115;-84
2023/12/24 00:17:07;;;;;;;13.18;3.92;;;8.90;99.90;;;;;;5062665;28;20273;-83
2023/12/24 00:19:33;;;;;;;18.73;4.43;;;8.90;99.90;;;;;;5072072;28;20055;-83
2023/12/24 00:21:58;;;;;;;17.20;3.40;;;9.00;99.90;;;;;;5061668;28;20511;-85
2023/12/24 00:24:24;;;;;;;12.43;3.90;;;9.00;99.90;;;;;;5055619;28;20040;-84
2023/12/24 00:26:50;;;;;;;11.80;3.40;;;9.00;99.90;;;;;;5075677;28;20035;-83
2023/12/24 00:29:15;;;;;;;16.73;3.95;;;8.90;99.90;;;;;;5075260;28;20039;-83
2023/12/24 00:31:41;;;;;;;13.63;3.72;;;8.90;99.90;;;;;;5061943;28;20040;-83
2023/12/24 00:34:09;;;;;;;18.30;4.18;;;9.00;99.90;;;;;;5059234;28;20038;-83
2023/12/24 00:36:35;;;;;;;12.95;3.50;;;8.90;99.90;;;;;;5073609;28;20044;-83
2023/12/24 00:39:01;;;;;;;11.55;3.58;;;8.90;99.90;;;;;;5063378;28;20100;-84
2023/12/24 00:41:27;;;;;;;10.35;3.45;;;9.00;99.90;;;;;;5077410;28;20131;-83
2023/12/24 00:43:52;;;;;;;14.18;3.22;;;9.00;99.90;;;;;;5060685;28;20740;-83
2023/12/24 00:46:18;;;;;;;12.05;3.75;;;8.90;99.90;;;;;;5075662;28;20028;-83
2023/12/24 00:48:44;;;;;;;9.38;3.33;;;9.00;99.90;;;;;;5059464;28;20036;-83
2023/12/24 00:51:10;;;;;;;12.23;3.13;;;8.90;99.90;;;;;;5058383;28;20444;-83
2023/12/24 00:53:36;;;;;;;14.38;4.00;;;8.90;99.90;;;;;;5076064;28;20135;-83
2023/12/24 00:56:02;;;;;;;17.58;4.45;;;8.90;99.90;;;;;;5058039;28;20380;-84
2023/12/24 00:58:28;;;;;;;11.73;3.63;;;8.90;99.90;;;;;;5061358;28;20047;-83
2023/12/24 01:00:53;;;;;;;16.02;3.78;;;8.90;99.90;;;;;;5062889;28;20066;-84
2023/12/24 01:03:20;;;;;;;14.07;4.13;;;8.90;99.90;;;;;;5059817;28;20043;-83
2023/12/24 01:05:45;;;;;;;16.23;3.47;;;8.90;99.90;;;;;;5075753;28;20043;-84
2023/12/24 01:08:11;;;;;;;18.42;4.80;;;8.90;99.90;;;;;;5070200;28;20050;-84
2023/12/24 01:10:37;;;;;;;16.70;4.20;;;8.90;99.90;;;;;;5073381;28;20036;-84
2023/12/24 01:13:02;;;;;;;12.73;4.07;;;8.90;99.90;;;;;;5059043;28;20050;-84
2023/12/24 01:15:28;;;;;;;17.63;4.05;;;9.00;99.90;;;;;;5058817;28;20063;-84
2023/12/24 01:17:54;;;;;;;12.50;3.42;;;8.90;99.90;;;;;;5060899;28;20040;-84
2023/12/24 01:20:19;;;;;;;12.52;4.05;;;8.90;99.90;;;;;;5055972;28;20380;-84
2023/12/24 01:22:46;;;;;;;12.93;3.67;;;8.90;99.90;;;;;;5075379;28;20039;-85
2023/12/24 01:25:11;;;;;;;13.85;3.58;;;8.90;99.90;;;;;;5077402;28;20046;-83
2023/12/24 01:27:37;;;;;;;12.52;3.65;;;8.90;99.90;;;;;;5058736;28;20044;-84
2023/12/24 01:30:04;;;;;;;11.50;3.42;;;8.90;99.90;;;;;;5057834;28;20190;-83
2023/12/24 01:32:31;;;;;;;14.55;3.53;;;8.90;99.90;;;;;;5060998;28;20190;-83
2023/12/24 01:34:58;;;;;;;14.43;3.50;;;8.90;99.90;;;;;;5060060;28;20100;-84
2023/12/24 01:37:24;;;;;;;12.07;3.75;;;8.90;99.90;;;;;;5059372;28;20278;-84
2023/12/24 01:39:50;;;;;;;9.00;3.28;;;8.90;99.90;;;;;;5056533;28;20075;-84
2023/12/24 01:42:15;;;;;;;11.75;3.10;;;8.90;99.90;;;;;;5090591;28;20392;-90
2023/12/24 01:44:41;;;;;;;13.10;3.28;;;8.90;99.90;;;;;;5064291;28;20047;-89
2023/12/24 01:47:07;;;;;;;12.15;3.08;;;8.90;99.90;;;;;;5064889;28;20479;-90
2023/12/24 01:49:35;;;;;;;12.82;2.75;;;8.90;99.90;;;;;;5060412;28;20297;-90
2023/12/24 01:52:01;;;;;;;10.50;2.70;;;8.90;99.90;;;;;;5059665;28;20550;-89
2023/12/24 01:54:30;;;;;;;7.72;2.53;;;8.90;99.90;;;;;;5080148;28;20569;-90
2023/12/24 01:56:58;;;;;;;8.57;2.38;;;8.90;99.90;;;;;;5062368;28;20040;-90
2023/12/24 01:59:24;;;;;;;4.10;2.53;;;8.90;99.90;;;;;;5073289;28;20096;-90
2023/12/24 02:01:50;;;;;;;5.20;2.05;;;8.90;99.90;;;;;;5056465;28;20044;-90
2023/12/24 02:04:16;;;;;;;8.10;2.45;;;8.90;99.90;;;;;;5069267;28;20438;-90
2023/12/24 02:06:42;;;;;;;11.23;2.50;;;8.90;99.90;;;;;;5063520;28;20032;-89
2023/12/24 02:09:07;;;;;;;9.73;2.53;;;8.90;99.90;;;;;;5059765;28;20055;-89
2023/12/24 02:11:33;;;;;;;4.32;2.42;;;8.90;99.90;;;;;;5062986;28;20088;-88
2023/12/24 02:13:59;;;;;;;5.53;2.13;;;8.90;99.90;;;;;;5057486;28;20077;-90
2023/12/24 02:16:29;;;;;;;4.47;2.03;;;8.90;99.90;;;;;;5063742;28;20040;-89
2023/12/24 02:18:54;;;;;;;7.38;2.30;;;8.90;99.90;;;;;;5058162;28;20097;-90
2023/12/24 02:21:20;;;;;;;6.35;2.22;;;8.90;99.90;;;;;;5061544;28;20043;-90
2023/12/24 02:23:46;;;;;;;8.80;2.78;;;8.90;99.90;;;;;;5063211;28;20092;-90
2023/12/24 02:26:19;;;;;;;10.20;2.70;;;8.90;99.90;;;;;;5058509;28;20069;-90
2023/12/24 02:28:50;;;;;;;8.57;2.60;;;8.90;99.90;;;;;;5063849;28;20111;-90
2023/12/24 02:31:20;;;;;;;7.82;2.50;;;8.90;99.90;;;;;;5062889;28;20544;-89
2023/12/24 02:33:49;;;;;;;5.57;2.38;;;8.90;99.90;;;;;;5061429;28;20040;-90
2023/12/24 02:36:15;;;;;;;8.98;2.60;;;8.90;99.90;;;;;;5078788;28;20071;-88
2023/12/24 02:38:41;;;;;;;9.18;2.60;;;9.00;99.90;;;;;;5055917;28;20135;-86
2023/12/24 02:41:06;;;;;;;7.13;2.92;;;9.00;99.90;;;;;;5069736;28;20502;-86
2023/12/24 02:43:34;;;;;;;14.70;3.20;;;9.00;99.90;;;;;;5059979;28;20112;-90
2023/12/24 02:46:01;;;;;;;7.53;3.05;;;9.00;99.90;;;;;;5060173;28;20040;-90
2023/12/24 02:48:26;;;;;;;6.32;2.78;;;9.00;99.90;;;;;;5063330;28;20050;-90
2023/12/24 02:50:52;;;;;;;10.70;3.95;;;9.00;99.90;;;;;;5059620;28;20070;-89
2023/12/24 02:53:18;;;;;;;13.95;4.05;;;9.00;99.90;;;;;;5060302;28;20142;-90
2023/12/24 02:55:44;;;;;;;7.85;3.10;;;9.00;99.90;;;;;;5064683;28;20228;-90
2023/12/24 02:58:10;;;;;;;11.63;3.20;;;9.00;99.90;;;;;;5059941;28;20122;-90
2023/12/24 03:00:35;;;;;;;12.18;3.45;;;9.00;99.90;;;;;;5061340;28;20047;-89
2023/12/24 03:03:01;;;;;;;7.20;2.92;;;9.00;99.90;;;;;;5063030;28;20113;-89
2023/12/24 03:05:27;;;;;;;7.53;3.20;;;9.10;99.90;;;;;;5078058;28;20059;-89
2023/12/24 03:07:52;;;;;;;6.78;2.50;;;9.10;99.90;;;;;;5062353;28;20089;-90
2023/12/24 03:10:18;;;;;;;6.60;2.00;;;9.00;99.90;;;;;;5079434;28;20055;-90
2023/12/24 03:12:44;;;;;;;6.88;2.33;;;9.10;99.90;;;;;;5056511;28;20177;-91
2023/12/24 03:15:11;;;;;;;7.28;2.30;;;9.10;99.90;;;;;;5072157;28;20363;-89
2023/12/24 03:17:37;;;;;;;7.35;2.03;;;9.10;99.90;;;;;;5060654;28;20036;-89
2023/12/24 03:20:03;;;;;;;3.42;1.70;;;9.10;99.90;;;;;;5057598;28;20071;-90
2023/12/24 03:22:29;;;;;;;7.93;2.05;;;9.10;99.90;;;;;;5063737;28;20043;-90
2023/12/24 03:24:55;;;;;;;6.22;2.38;;;9.10;99.90;;;;;;5058509;28;20436;-89
2023/12/24 03:27:20;;;;;;;5.25;2.40;;;9.10;99.90;;;;;;5063685;28;20490;-90
2023/12/24 03:29:46;;;;;;;5.85;2.38;;;9.20;99.90;;;;;;5057351;28;20043;-90
2023/12/24 03:32:12;;;;;;;6.78;2.30;;;9.10;99.90;;;;;;5057687;28;20478;-83
2023/12/24 03:34:38;;;;;;;7.18;2.67;;;9.10;99.90;;;;;;5055485;28;20040;-84
2023/12/24 03:37:04;;;;;;;6.38;2.70;;;9.20;99.90;;;;;;5054348;28;20400;-84
2023/12/24 03:39:29;;;;;;;6.05;2.20;;;9.20;99.90;;;;;;5060407;28;20039;-83
2023/12/24 03:41:55;;;;;;;5.82;2.53;;;9.20;99.90;;;;;;5068565;28;20365;-83
2023/12/24 03:44:21;;;;;;;5.70;2.45;;;9.10;99.90;;;;;;5063631;28;20095;-83
2023/12/24 03:46:46;;;;;;;4.53;2.20;;;9.20;99.90;;;;;;5065855;28;20051;-84
2023/12/24 03:49:12;;;;;;;5.28;2.53;;;9.20;99.90;;;;;;5064293;28;20506;-84
2023/12/24 03:51:38;;;;;;;4.70;2.35;;;9.20;99.90;;;;;;5061057;28;20311;-83
2023/12/24 03:54:06;;;;;;;6.30;2.60;;;9.20;99.90;;;;;;5081476;28;20083;-83
2023/12/24 03:56:31;;;;;;;3.08;2.13;;;9.20;99.90;;;;;;5066146;28;20067;-83
2023/12/24 03:58:58;;;;;;;5.13;2.20;;;9.20;99.90;;;;;;5062768;28;20084;-83
2023/12/24 04:01:27;;;;;;;5.90;2.10;;;9.20;99.90;;;;;;5058345;28;20700;-84
2023/12/24 04:03:53;;;;;;;2.92;2.10;;;9.20;99.90;;;;;;5057910;28;20130;-83
2023/12/24 04:06:19;;;;;;;4.63;2.15;;;9.20;99.90;;;;;;5070254;28;20351;-83
2023/12/24 04:08:45;;;;;;;2.47;1.85;;;9.20;99.90;;;;;;5075303;28;20086;-83
2023/12/24 04:11:16;;;;;;;3.28;1.60;;;9.20;99.90;;;;;;5062394;28;20684;-90
2023/12/24 04:13:42;;;;;;;3.88;1.60;;;9.20;99.90;;;;;;5085465;28;20040;-90
2023/12/24 04:16:08;;;;;;;5.18;1.50;;;9.20;99.90;;;;;;5062462;28;21163;-89
2023/12/24 04:18:34;;;;;;;3.15;1.88;;;9.20;99.90;;;;;;5065756;28;20043;-88
2023/12/24 04:21:00;;;;;;;4.30;1.58;;;9.30;99.90;;;;;;5061888;28;20048;-90
2023/12/24 04:23:26;;;;;;;3.15;1.40;;;9.20;99.90;;;;;;5065757;28;20036;-89
2023/12/24 04:25:52;;;;;;;1.92;1.30;;;9.20;99.90;;;;;;5067657;28;20040;-90
2023/12/24 04:28:17;;;;;;;3.72;1.67;;;9.30;99.90;;;;;;5064021;28;20081;-91
2023/12/24 04:30:43;;;;;;;2.35;1.30;;;9.30;99.90;;;;;;5064650;28;20036;-90
2023/12/24 04:33:10;;;;;;;2.33;1.30;;;9.30;99.90;;;;;;5065218;28;20040;-90
2023/12/24 04:35:36;;;;;;;2.88;1.40;;;9.30;99.90;;;;;;5067464;28;20048;-91
2023/12/24 04:38:02;;;;;;;2.55;1.30;;;9.30;99.90;;;;;;5079219;28;20414;-90
2023/12/24 04:40:28;;;;;;;3.90;1.42;;;9.30;99.90;;;;;;5062406;28;20112;-90
2023/12/24 04:42:54;;;;;;;3.50;1.25;;;9.30;99.90;;;;;;5076087;28;20035;-90
2023/12/24 04:45:22;;;;;;;3.60;1.35;;;9.30;99.90;;;;;;5064693;28;20036;-89
2023/12/24 04:47:48;;;;;;;3.08;1.30;;;9.30;99.90;;;;;;5064391;28;20065;-90
2023/12/24 04:50:14;;;;;;;2.92;1.27;;;9.30;99.90;;;;;;5056095;28;20028;-90
2023/12/24 04:52:40;;;;;;;2.90;1.40;;;9.30;99.90;;;;;;5063788;28;20038;-90
2023/12/24 04:55:06;;;;;;;2.55;1.35;;;9.40;99.90;;;;;;5065769;28;20046;-89
2023/12/24 04:57:32;;;;;;;3.33;1.30;;;9.30;99.90;;;;;;5063279;28;20502;-89
2023/12/24 04:59:58;;;;;;;2.85;1.20;;;9.40;99.90;;;;;;5057843;28;20107;-90
2023/12/24 05:02:26;;;;;;;1.95;1.20;;;9.30;99.90;;;;;;5077945;28;20039;-90
2023/12/24 05:04:54;;;;;;;2.53;1.33;;;9.40;99.90;;;;;;5081589;28;20039;-91
2023/12/24 05:07:20;;;;;;;3.15;1.23;;;9.40;99.90;;;;;;5063954;28;20040;-90
2023/12/24 05:09:46;;;;;;;1.48;1.08;;;9.40;99.90;;;;;;5082197;28;20467;-90
2023/12/24 05:12:12;;;;;;;3.58;1.20;;;9.40;99.90;;;;;;5060744;28;20090;-90
2023/12/24 05:14:37;;;;;;;2.13;1.50;;;9.40;99.90;;;;;;5063691;28;20054;-90
2023/12/24 05:17:03;;;;;;;3.15;1.60;;;9.40;99.90;;;;;;5063834;28;20094;-89
2023/12/24 05:19:29;;;;;;;1.80;1.30;;;9.40;99.90;;;;;;5060927;28;20064;-90
2023/12/24 05:21:55;;;;;;;2.63;1.55;;;9.40;99.90;;;;;;5075083;28;20055;-90
2023/12/24 05:24:21;;;;;;;3.05;1.70;;;9.40;99.90;;;;;;5065139;28;20043;-90
2023/12/24 05:26:47;;;;;;;3.35;1.70;;;9.40;99.90;;;;;;5061744;28;20048;-91
2023/12/24 05:29:13;;;;;;;3.58;2.30;;;9.50;99.90;;;;;;5063780;28;20576;-91
2023/12/24 05:31:40;;;;;;;3.17;1.70;;;9.50;99.90;;;;;;5073895;28;20122;-90
2023/12/24 05:34:06;;;;;;;2.85;2.00;;;9.50;99.90;;;;;;5081206;28;20043;-90
2023/12/24 05:36:33;;;;;;;2.85;2.00;;;9.50;99.90;;;;;;5076758;28;20561;-89
2023/12/24 05:38:59;;;;;;;5.60;1.90;;;9.50;99.90;;;;;;5059869;28;20402;-89
2023/12/24 05:41:25;;;;;;;5.60;2.10;;;9.50;99.90;;;;;;5055019;28;20048;-90
2023/12/24 05:43:51;;;;;;;3.67;1.98;;;9.50;99.90;;;;;;5072264;28;20519;-90
2023/12/24 05:46:16;;;;;;;3.72;2.20;;;9.60;99.90;;;;;;5049472;28;20410;-90
2023/12/24 05:48:42;;;;;;;9.68;2.35;;;9.60;99.90;;;;;;5062234;28;20179;-89
2023/12/24 05:51:08;;;;;;;6.65;2.60;;;9.60;99.90;;;;;;5065329;28;20498;-88
2023/12/24 05:53:34;;;;;;;7.13;2.65;;;9.60;99.90;;;;;;5060071;28;20052;-89
2023/12/24 05:56:00;;;;;;;6.18;2.92;;;9.60;99.90;;;;;;5065548;28;20036;-90
2023/12/24 05:58:26;;;;;;;4.50;2.35;;;9.60;99.90;;;;;;5063970;28;20043;-89
2023/12/24 06:00:52;;;;;;;6.47;2.33;;;9.60;99.90;;;;;;5062403;28;20063;-91
2023/12/24 06:03:18;;;;;;;7.80;2.88;;;9.70;99.90;;;;;;5054315;28;20518;-90
2023/12/24 06:05:44;;;;;;;7.78;2.42;;;9.70;99.90;;;;;;5077173;28;20027;-90
2023/12/24 06:08:13;;;;;;;5.78;2.63;;;9.70;99.90;;;;;;5062589;28;20040;-91
2023/12/24 06:10:38;;;;;;;9.48;2.80;;;9.70;99.90;;;;;;5061870;28;20058;-91
2023/12/24 06:13:04;;;;;;;4.47;2.33;;;9.70;99.90;;;;;;5079429;28;20040;-89
2023/12/24 06:15:30;;;;;;;6.68;3.08;;;9.80;99.90;;;;;;5079270;28;20062;-91
2023/12/24 06:17:56;;;;;;;10.52;3.05;;;9.80;99.90;;;;;;5065694;28;20042;-88
2023/12/24 06:20:22;;;;;;;10.77;4.20;;;9.80;99.90;;;;;;5062917;28;20047;-90
2023/12/24 06:22:47;;;;;;;6.90;2.90;;;9.90;99.90;;;;;;5060048;28;20040;-90
2023/12/24 06:25:13;;;;;;;11.27;2.90;;;9.90;99.90;;;;;;5064117;28;20107;-90
2023/12/24 06:27:39;;;;;;;14.18;3.55;;;9.90;99.90;;;;;;5061194;28;20028;-91
2023/12/24 06:30:05;;;;;;;10.75;3.10;;;9.90;99.90;;;;;;5076346;28;20127;-89
2023/12/24 06:32:31;;;;;;;11.80;3.40;;;9.90;99.90;;;;;;5073924;28;20174;-90
2023/12/24 06:34:57;;;;;;;10.90;3.40;;;9.90;99.90;;;;;;5060337;28;20118;-90
2023/12/24 06:37:23;;;;;;;9.73;3.50;;;10.00;99.90;;;;;;5058029;28;20040;-90
2023/12/24 06:39:49;;;;;;;12.20;3.25;;;10.00;99.90;;;;;;5060432;28;20055;-91
2023/12/24 06:42:16;;;;;;;11.55;3.55;;;10.00;99.90;;;;;;5072577;28;20047;-89
2023/12/24 06:44:42;;;;;;;8.73;2.90;;;10.10;99.90;;;;;;5059013;28;20070;-90
2023/12/24 06:47:07;;;;;;;10.80;3.78;;;10.10;99.90;;;;;;5057980;28;20043;-89
2023/12/24 06:49:33;;;;;;;12.00;3.40;;;10.10;99.90;;;;;;5063670;28;20383;-90
2023/12/24 06:51:59;;;;;;;11.30;3.30;;;10.10;99.90;;;;;;5059869;28;20040;-89
2023/12/24 06:54:24;;;;;;;12.32;3.05;;;10.20;99.90;;;;;;5071197;28;20079;-90
2023/12/24 06:56:50;;;;;;;14.75;3.08;;;10.10;99.90;;;;;;5063221;28;20047;-89
2023/12/24 06:59:16;;;;;;;14.52;3.65;;;10.20;99.90;;;;;;5055028;28;20181;-89
2023/12/24 07:01:41;;;;;;;14.52;3.15;;;10.20;99.90;;;;;;5062330;28;20043;-90
2023/12/24 07:04:07;;;;;;;18.38;4.63;;;10.10;99.90;;;;;;5062914;28;20106;-90
2023/12/24 07:06:33;;;;;;;13.00;3.15;;;10.10;99.90;;;;;;5060953;28;20130;-89
2023/12/24 07:08:58;;;;;;;11.23;3.42;;;10.10;99.90;;;;;;5054946;28;20372;-88
2023/12/24 07:11:24;;;;;;;14.75;3.55;;;10.20;99.90;;;;;;5064897;28;20047;-89
2023/12/24 07:13:50;;;;;;;15.98;4.43;;;10.20;99.90;;;;;;5061004;28;20066;-89
2023/12/24 07:16:16;;;;;;;12.57;3.67;;;10.10;99.90;;;;;;5069928;28;20650;-89
2023/12/24 07:18:41;;;;;;;13.15;3.13;;;10.20;99.90;;;;;;5062683;28;20032;-89
2023/12/24 07:21:07;;;;;;;11.07;3.63;;;10.20;99.90;;;;;;5074665;28;20470;-90
2023/12/24 07:23:33;;;;;;;13.75;3.58;;;10.20;99.90;;;;;;5071016;28;20546;-89
2023/12/24 07:25:58;;;;;;;17.02;3.78;;;10.20;99.90;;;;;;5064803;28;20039;-89
2023/12/24 07:28:24;;;;;;;13.88;4.13;;;10.20;99.90;;;;;;5062464;28;20040;-89
2023/12/24 07:30:50;;;;;;;11.80;3.55;;;10.20;99.90;;;;;;5059155;28;20056;-90
2023/12/24 07:33:15;;;;;;;16.02;4.18;;;10.20;99.90;;;;;;5062317;28;20142;-90
2023/12/24 07:35:41;;;;;;;12.73;3.78;;;10.20;99.90;;;;;;5056848;28;20514;-89
2023/12/24 07:38:07;;;;;;;13.90;4.15;;;10.20;99.90;;;;;;5062701;28;20630;-89
2023/12/24 07:40:32;;;;;;;15.27;3.63;;;10.20;99.90;;;;;;5062706;28;20039;-90
2023/12/24 07:42:59;;;;;;;12.82;3.95;;;10.20;99.90;;;;;;5068577;28;20040;-89
2023/12/24 07:45:28;;;;;;;14.98;3.88;;;10.20;99.90;;;;;;5055713;28;20083;-89
2023/12/24 07:47:53;;;;;;;16.52;4.13;;;10.20;99.90;;;;;;5061397;28;20043;-83
2023/12/24 07:50:19;;;;;;;12.48;3.75;;;10.20;99.90;;;;;;5075065;28;20173;-84
2023/12/24 07:52:45;;;;;;;12.23;3.20;;;10.20;99.90;;;;;;5060686;28;20053;-84
2023/12/24 07:55:11;;;;;;;15.90;4.63;;;10.20;99.90;;;;;;5070360;28;20395;-84
2023/12/24 07:57:36;;;;;;;16.45;3.97;;;10.30;99.90;;;;;;5074035;28;20040;-84
2023/12/24 08:00:06;;;;;;;13.05;3.70;;;10.20;99.90;;;;;;5059410;28;20041;-83
2023/12/24 08:02:33;;;;;;;9.43;3.28;;;10.20;99.90;;;;;;5056727;28;20438;-84
2023/12/24 08:04:58;;;;;;;12.60;4.25;;;10.20;99.90;;;;;;5059264;28;20477;-84
2023/12/24 08:07:24;;;;;;;14.55;3.80;;;10.30;99.90;;;;;;5056714;28;20044;-85
2023/12/24 08:09:50;;;;;;;14.88;4.25;;;10.30;99.90;;;;;;5061376;28;20154;-84
2023/12/24 08:12:16;;;;;;;15.80;4.60;;;10.20;99.90;;;;;;5059698;28;20042;-83
2023/12/24 08:14:41;;;;;;;12.52;4.63;;;10.30;99.90;;;;;;5057292;28;20040;-84
2023/12/24 08:17:07;;;;;;;15.00;3.65;;;10.30;99.90;;;;;;5059334;28;20087;-84
2023/12/24 08:19:33;;;;;;;15.90;3.83;;;10.30;99.90;;;;;;5076377;28;20071;-84
2023/12/24 08:21:59;;;;;;;15.25;4.00;;;10.30;99.90;;;;;;5072285;28;20079;-83
2023/12/24 08:24:24;;;;;;;14.07;3.95;;;10.40;99.90;;;;;;5054720;28;20067;-84
2023/12/24 08:26:51;;;;;;;17.00;4.05;;;10.40;99.90;;;;;;5074156;28;20044;-84
2023/12/24 08:29:17;;;;;;;15.15;3.67;;;10.40;99.90;;;;;;5059778;28;20427;-84
2023/12/24 08:31:42;;;;;;;15.13;3.90;;;10.40;99.90;;;;;;5056527;28;20048;-83
2023/12/24 08:34:08;;;;;;;23.38;3.80;;;10.40;99.90;;;;;;5062831;28;20044;-84
2023/12/24 08:36:34;;;;;;;15.55;3.70;;;10.40;99.90;;;;;;5061746;28;20294;-83
2023/12/24 08:39:00;;;;;;;12.38;3.42;;;10.40;99.90;;;;;;5060768;28;20115;-84
2023/12/24 08:41:26;;;;;;;12.73;3.05;;;10.40;99.90;;;;;;5076378;28;20151;-83
2023/12/24 08:43:51;;;;;;;17.88;3.80;;;10.40;99.90;;;;;;5060765;28;20040;-83
2023/12/24 08:46:17;;;;;;;19.60;3.65;;;10.50;99.90;;;;;;5059887;28;20323;-83
2023/12/24 08:48:43;;;;;;;11.90;3.33;;;10.50;99.90;;;;;;5057366;28;20110;-83
2023/12/24 08:51:08;;;;;;;17.50;3.85;;;10.50;99.90;;;;;;5055663;28;20059;-84
2023/12/24 08:53:35;;;;;;;15.00;3.45;;;10.50;99.90;;;;;;5075147;28;20078;-83
2023/12/24 08:56:01;;;;;;;16.73;3.80;;;10.50;99.90;;;;;;5072480;28;20134;-83
2023/12/24 08:58:55;;;;;;;15.90;3.88;;;10.50;99.90;;;;;;5069725;28;20122;-89
2023/12/24 09:08:01;;;;;;;17.63;4.13;;;10.60;99.90;;;;;;758374;22;20389;-90
2023/12/24 09:10:27;;;;;;;16.98;4.05;;;10.60;99.90;;;;;;5031533;28;20137;-90
2023/12/24 09:12:53;;;;;;;17.35;3.75;;;10.60;99.90;;;;;;5020404;28;20132;-89
2023/12/24 09:15:18;;;;;;;17.10;3.92;;;10.60;99.90;;;;;;5024463;28;20087;-90
2023/12/24 09:17:44;;;;;;;19.77;4.00;;;10.60;99.90;;;;;;5022704;28;20037;-90
2023/12/24 09:20:10;;;;;;;20.52;4.28;;;10.60;99.90;;;;;;5037498;28;20037;-90
2023/12/24 09:22:36;;;;;;;17.27;3.38;;;10.70;99.90;;;;;;5038167;28;20049;-90
2023/12/24 09:25:01;;;;;;;17.05;4.28;;;10.60;99.90;;;;;;5011583;28;20098;-89
2023/12/24 09:27:27;;;;;;;15.57;3.72;;;10.70;99.90;;;;;;5030189;28;20048;-89
2023/12/24 09:29:53;;;;;;;19.40;4.07;;;10.70;99.90;;;;;;5022021;28;20033;-90
2023/12/24 09:32:19;;;;;;;11.35;3.13;;;10.70;99.90;;;;;;5018416;28;20049;-90
2023/12/24 09:34:44;;;;;;;13.80;3.40;;;10.70;99.90;;;;;;5022059;28;20207;-87
2023/12/24 09:37:11;;;;;;;8.57;3.42;;;10.70;99.90;;;;;;5037451;28;20563;-90
2023/12/24 09:39:37;;;;;;;16.75;3.75;;;10.70;99.90;;;;;;5020963;28;20124;-89
2023/12/24 09:42:03;;;;;;;9.07;3.55;;;10.80;99.90;;;;;;5021486;28;20148;-89
2023/12/24 09:44:29;;;;;;;17.73;4.32;;;10.80;99.90;;;;;;5033834;28;20104;-89
2023/12/24 09:46:55;;;;;;;11.23;3.25;;;10.90;99.90;;;;;;5022205;28;20120;-88
2023/12/24 09:49:21;;;;;;;19.67;4.82;;;10.80;99.90;;;;;;5030496;28;20128;-89
2023/12/24 09:51:47;;;;;;;17.17;5.05;;;10.90;99.90;;;;;;5017937;28;20116;-90
2023/12/24 09:54:14;;;;;;;15.45;3.50;;;10.90;99.90;;;;;;5022091;28;20044;-89
2023/12/24 09:56:40;;;;;;;17.42;4.53;;;10.90;99.90;;;;;;5037155;28;20046;-89
2023/12/24 09:59:05;;;;;;;18.25;3.63;;;10.90;99.90;;;;;;5021449;28;20114;-89
2023/12/24 10:01:44;;;;;;;15.98;3.75;;;11.00;99.90;;;;;;5022935;28;20124;-88
2023/12/24 10:04:11;;;;;;;14.07;3.63;;;11.00;99.90;;;;;;5033625;28;20124;-90
2023/12/24 10:06:58;;;;;;;15.55;3.70;;;11.00;99.90;;;;;;5022132;28;20045;-87
2023/12/24 10:09:43;;;;;;;14.82;3.95;;;11.00;99.90;;;;;;5017615;28;20060;-89
2023/12/24 10:12:09;;;;;;;16.20;3.72;;;11.00;99.90;;;;;;5004163;28;20107;-88
2023/12/24 10:14:38;;;;;;;19.27;4.47;;;11.00;99.90;;;;;;5021019;28;20055;-90
2023/12/24 10:17:05;;;;;;;13.90;3.83;;;11.00;99.90;;;;;;5014533;28;20117;-88
2023/12/24 10:19:31;;;;;;;12.32;3.40;;;11.00;99.90;;;;;;5025115;28;20060;-89
2023/12/24 10:22:09;;;;;;;19.20;3.85;;;11.00;99.90;;;;;;5033077;28;20037;-89
2023/12/24 10:24:40;;;;;;;12.60;3.97;;;11.00;99.90;;;;;;5019700;28;20137;-90
2023/12/24 10:27:10;;;;;;;14.73;3.40;;;11.00;99.90;;;;;;5020748;28;20104;-88
2023/12/24 10:29:38;;;;;;;15.57;2.95;;;11.00;99.90;;;;;;5019201;28;20442;-89
2023/12/24 10:32:05;;;;;;;11.60;3.63;;;11.10;99.90;;;;;;5021738;28;20036;-88
2023/12/24 10:34:33;;;;;;;13.10;3.38;;;11.10;99.90;;;;;;5034424;28;20051;-90
2023/12/24 10:37:15;;;;;;;11.95;3.50;;;11.20;99.90;;;;;;5018672;28;20072;-89
2023/12/24 10:39:40;;;;;;;14.60;3.70;;;11.20;99.90;;;;;;5030549;28;20252;-89
2023/12/24 10:42:06;;;;;;;16.13;3.75;;;11.20;99.90;;;;;;5021258;28;20048;-90
2023/12/24 10:44:35;;;;;;;12.68;3.90;;;11.20;99.90;;;;;;5025190;28;20042;-90
2023/12/24 10:47:00;;;;;;;15.82;4.28;;;11.20;99.90;;;;;;5017865;28;20045;-89
2023/12/24 10:49:26;;;;;;;11.88;3.90;;;11.40;99.90;;;;;;5026261;28;20060;-83
2023/12/24 10:51:52;;;;;;;10.95;4.20;;;11.40;99.90;;;;;;5017412;28;20406;-84
2023/12/24 10:54:18;;;;;;;9.02;4.13;;;11.40;99.90;;;;;;5026222;28;20039;-83
2023/12/24 10:57:13;;;;;;;14.98;4.38;;;11.40;99.90;;;;;;5012181;28;20037;-83
2023/12/24 10:59:57;;;;;;;14.93;4.80;;;11.40;99.90;;;;;;4989656;28;20052;-85
2023/12/24 11:02:23;;;;;;;14.90;4.47;;;11.50;99.90;;;;;;5015050;28;20241;-84
2023/12/24 11:04:49;;;;;;;14.38;4.63;;;11.50;99.90;;;;;;5014528;28;20435;-83
2023/12/24 11:07:33;;;;;;;15.13;4.22;;;11.60;99.90;;;;;;5013888;28;20043;-83
2023/12/24 11:10:00;;;;;;;11.07;4.60;;;11.50;99.90;;;;;;5017348;28;20085;-88
2023/12/24 11:12:38;;;;;;;12.25;4.78;;;11.60;99.90;;;;;;5011773;28;20060;-88
2023/12/24 11:15:04;;;;;;;9.57;4.70;;;11.60;99.90;;;;;;5018717;28;20037;-90
2023/12/24 11:17:33;;;;;;;17.45;4.63;;;11.60;99.90;;;;;;5034889;28;20051;-86
2023/12/24 11:20:21;;;;;;;15.35;4.63;;;11.60;99.90;;;;;;5025876;28;20041;-87
2023/12/24 11:23:16;;;;;;;12.27;5.13;;;11.60;99.90;;;;;;5014590;28;20289;-87
2023/12/24 11:25:46;;;;;;;14.10;4.72;;;11.50;99.90;;;;;;5002119;28;20628;-88
2023/12/24 11:28:24;;;;;;;11.40;4.47;;;11.50;99.90;;;;;;5029072;28;20041;-87
2023/12/24 11:30:50;;;;;;;14.13;4.70;;;11.50;99.90;;;;;;5006387;28;20051;-88
2023/12/24 11:33:28;;;;;;;11.65;4.72;;;11.50;99.90;;;;;;5016859;28;20049;-86
2023/12/24 11:35:56;;;;;;;15.38;4.90;;;11.50;99.90;;;;;;5017420;28;20497;-88
2023/12/24 11:38:34;;;;;;;14.43;4.57;;;11.50;99.90;;;;;;5025158;28;20041;-89
2023/12/24 11:41:17;;;;;;;11.35;4.68;;;11.60;99.90;;;;;;5035586;28;20500;-87
2023/12/24 11:43:57;;;;;;;13.25;4.07;;;11.50;99.90;;;;;;5032227;28;20627;-88
2023/12/24 11:46:24;;;;;;;12.32;4.30;;;11.50;99.90;;;;;;5026563;28;20072;-88
2023/12/24 11:48:50;;;;;;;14.23;4.07;;;11.50;99.90;;;;;;5014936;28;20041;-89
2023/12/24 11:51:20;;;;;;;12.95;3.80;;;11.60;99.90;;;;;;5034136;28;20109;-90
2023/12/24 11:53:46;;;;;;;17.17;4.70;;;11.50;99.90;;;;;;5022324;28;20039;-90
2023/12/24 11:56:14;;;;;;;9.52;3.88;;;11.50;99.90;;;;;;5038134;28;20040;-89
2023/12/24 11:58:58;;;;;;;18.20;4.70;;;11.50;99.90;;;;;;5020945;28;20041;-90
2023/12/24 12:01:26;;;;;;;17.05;3.80;;;11.60;99.90;;;;;;5036685;28;20075;-89
2023/12/24 12:04:09;;;;;;;13.00;4.43;;;11.60;99.90;;;;;;5023037;28;20229;-89
2023/12/24 12:06:36;;;;;;;12.57;3.90;;;11.60;99.90;;;;;;5041573;28;20132;-89
2023/12/24 12:09:10;;;;;;;12.82;3.78;;;11.70;99.90;;;;;;5022920;28;20095;-89
2023/12/24 12:11:35;;;;;;;11.48;3.75;;;11.70;99.90;;;;;;5042095;28;20045;-90
2023/12/24 12:14:01;;;;;;;9.68;3.97;;;11.70;99.90;;;;;;5037003;28;20464;-90
2023/12/24 12:16:30;;;;;;;11.60;4.25;;;11.70;99.90;;;;;;5018420;28;20295;-89
2023/12/24 12:18:57;;;;;;;13.07;4.72;;;11.70;99.90;;;;;;5021309;28;20056;-91
2023/12/24 12:21:22;;;;;;;15.48;5.18;;;11.60;99.90;;;;;;5034497;28;20093;-89
2023/12/24 12:23:48;;;;;;;16.05;4.50;;;11.60;99.90;;;;;;5022558;28;20164;-90
2023/12/24 12:26:14;;;;;;;14.52;4.43;;;11.60;99.90;;;;;;5024022;28;20037;-91
2023/12/24 12:28:40;;;;;;;10.82;3.80;;;11.70;99.90;;;;;;5023474;28;20083;-89
2023/12/24 12:31:05;;;;;;;12.45;4.10;;;11.70;99.90;;;;;;5019929;28;20136;-87
2023/12/24 12:33:31;;;;;;;12.15;3.85;;;11.60;99.90;;;;;;5027358;28;20041;-89
2023/12/24 12:35:57;;;;;;;14.82;3.95;;;11.70;99.90;;;;;;5024616;28;20051;-90
2023/12/24 12:38:23;;;;;;;14.68;3.88;;;11.70;99.90;;;;;;5019872;28;20056;-89
2023/12/24 12:40:52;;;;;;;11.48;3.85;;;11.70;99.90;;;;;;5025778;28;20298;-90
2023/12/24 12:43:19;;;;;;;12.75;4.20;;;11.70;99.90;;;;;;5021330;28;20075;-87
2023/12/24 12:45:45;;;;;;;13.27;3.83;;;11.70;99.90;;;;;;5016153;28;20055;-89
2023/12/24 12:48:10;;;;;;;17.30;4.10;;;11.80;99.90;;;;;;5040119;28;20104;-89
2023/12/24 12:50:36;;;;;;;14.23;4.20;;;11.70;99.90;;;;;;5031618;28;20480;-89